Time;durP1;ratioP1;P1;durP2;ratioP2;P2;SDS_P1;SDS_P2;PMS_P1;PMS_P2;Temp;Humidity;BMP_temperature;BMP_pressure;BME280_temperature;BME280_humidity;BME280_pressure;Samples;Min_cycle;Max_cycle;Signal;HPM_P1;HPM_P2
2022/11/20 00:01:26;;;;;;;1.33;0.80;;;-1.10;99.90;;;;;;5110422;27;19915;-89
2022/11/20 00:03:53;;;;;;;4.88;1.83;;;-1.10;99.90;;;;;;5109993;27;20035;-89
2022/11/20 00:06:20;;;;;;;1.35;1.20;;;-0.40;99.90;;;;;;5104655;27;20126;-89
2022/11/20 00:08:46;;;;;;;3.42;1.73;;;-1.10;99.90;;;;;;5087551;28;20046;-89
2022/11/20 00:11:18;;;;;;;3.97;3.13;;;-1.10;99.90;;;;;;5101140;27;20564;-88
2022/11/20 00:13:45;;;;;;;1.45;1.13;;;-1.10;99.90;;;;;;5103534;27;20121;-89
2022/11/20 00:16:13;;;;;;;4.97;1.50;;;-1.10;99.90;;;;;;5085229;27;20388;-89
2022/11/20 00:18:39;;;;;;;1.40;1.30;;;-1.10;99.90;;;;;;5096923;27;20043;-89
2022/11/20 00:21:12;;;;;;;3.00;1.47;;;-1.00;99.90;;;;;;5088555;27;20070;-89
2022/11/20 00:23:38;;;;;;;1.83;1.02;;;-1.00;99.90;;;;;;5088336;28;20062;-89
2022/11/20 00:26:06;;;;;;;2.43;1.17;;;0.00;99.90;;;;;;5090150;27;20437;-89
2022/11/20 00:28:32;;;;;;;2.00;1.33;;;-1.00;99.90;;;;;;5085764;28;20112;-89
2022/11/20 00:31:06;;;;;;;1.70;1.40;;;-1.00;99.90;;;;;;5104034;27;20122;-89
2022/11/20 00:33:32;;;;;;;3.03;1.73;;;-1.00;99.90;;;;;;5102585;27;20067;-88
2022/11/20 00:36:03;;;;;;;0.90;0.83;;;-0.90;99.90;;;;;;5068032;27;20075;-89
2022/11/20 00:38:30;;;;;;;1.75;1.45;;;-0.90;99.90;;;;;;5113178;27;20039;-90
2022/11/20 00:41:01;;;;;;;1.80;1.60;;;-0.90;99.90;;;;;;5097107;27;20067;-89
2022/11/20 00:43:27;;;;;;;1.52;1.42;;;-1.00;99.90;;;;;;5101414;27;20035;-89
2022/11/20 00:45:58;;;;;;;4.45;1.58;;;-1.00;99.90;;;;;;5089190;27;20374;-89
2022/11/20 00:48:24;;;;;;;1.88;1.40;;;-0.10;99.90;;;;;;5081323;27;20046;-90
2022/11/20 00:50:50;;;;;;;2.57;1.37;;;-0.90;99.90;;;;;;5081947;27;20036;-89
2022/11/20 00:53:15;;;;;;;1.43;0.63;;;-0.90;99.90;;;;;;5072201;28;20058;-89
2022/11/20 00:55:41;;;;;;;1.10;0.87;;;-0.80;99.90;;;;;;5083675;28;20035;-89
2022/11/20 00:58:06;;;;;;;0.60;0.60;;;-0.90;99.90;;;;;;5079046;28;20092;-88
2022/11/20 01:00:32;;;;;;;1.83;1.43;;;-0.90;99.90;;;;;;5089285;27;20111;-89
2022/11/20 01:02:58;;;;;;;1.23;0.60;;;-0.90;99.90;;;;;;5101373;27;20050;-88
2022/11/20 01:05:23;;;;;;;1.47;0.77;;;0.20;99.90;;;;;;5105997;27;20051;-88
2022/11/20 01:07:49;;;;;;;1.55;0.85;;;-0.90;99.90;;;;;;5083284;28;20031;-89
2022/11/20 01:10:15;;;;;;;2.83;0.90;;;-0.90;99.90;;;;;;5087464;27;20038;-89
2022/11/20 01:12:40;;;;;;;1.00;0.63;;;-0.90;99.90;;;;;;5100219;27;20042;-89
2022/11/20 01:15:07;;;;;;;3.77;1.87;;;-0.80;99.90;;;;;;5085693;28;20031;-89
2022/11/20 01:17:33;;;;;;;;;;;-0.80;99.90;;;;;;5106113;27;20169;-89
2022/11/20 01:19:59;;;;;;;1.45;0.75;;;-0.70;99.90;;;;;;5096158;27;19994;-88
2022/11/20 01:22:25;;;;;;;1.83;0.40;;;-0.80;99.90;;;;;;5051514;28;20047;-89
2022/11/20 01:24:50;;;;;;;1.13;0.60;;;-0.40;99.90;;;;;;5093668;28;20036;-91
2022/11/20 01:27:16;;;;;;;1.57;0.80;;;-0.80;99.90;;;;;;5078241;28;20031;-88
2022/11/20 01:29:41;;;;;;;3.30;0.70;;;0.30;99.90;;;;;;5075966;28;20055;-91
2022/11/20 01:32:07;;;;;;;1.67;1.50;;;-0.80;99.90;;;;;;5085180;28;20042;-94
2022/11/20 01:34:33;;;;;;;0.30;0.30;;;0.00;99.90;;;;;;5095403;28;20059;-89
2022/11/20 01:36:58;;;;;;;1.97;0.67;;;0.30;99.90;;;;;;5089654;28;20039;-88
2022/11/20 01:39:26;;;;;;;0.23;0.23;;;-0.70;99.90;;;;;;5081030;28;20036;-88
2022/11/20 01:44:59;;;;;;;3.70;0.82;;;-0.70;99.90;;;;;;5108405;28;20123;-89
2022/11/20 01:47:34;;;;;;;1.87;0.47;;;0.20;99.90;;;;;;5085103;28;20043;-88
2022/11/20 01:50:13;;;;;;;0.57;0.43;;;-0.70;99.90;;;;;;5108780;28;20044;-90
2022/11/20 01:52:50;;;;;;;2.85;1.23;;;-0.70;99.90;;;;;;5086172;28;20104;-91
2022/11/20 01:55:25;;;;;;;3.22;0.95;;;0.20;99.90;;;;;;5098839;27;20054;-89
2022/11/20 01:57:51;;;;;;;2.53;0.93;;;-0.70;99.90;;;;;;5097709;28;20077;-88
2022/11/20 02:00:19;;;;;;;1.20;0.82;;;-0.70;99.90;;;;;;5093872;28;20044;-89
2022/11/20 02:02:57;;;;;;;1.45;0.65;;;-0.60;99.90;;;;;;5102980;28;20477;-89
2022/11/20 02:05:25;;;;;;;;;;;-0.60;99.90;;;;;;5106669;28;20039;-89
2022/11/20 02:07:52;;;;;;;;;;;-0.60;99.90;;;;;;5104659;28;20052;-91
2022/11/20 02:10:18;;;;;;;0.40;0.37;;;-0.60;99.90;;;;;;5106484;28;20362;-92
2022/11/20 02:15:28;;;;;;;0.40;0.40;;;-0.60;99.90;;;;;;5105225;28;20361;-89
2022/11/20 02:17:54;;;;;;;0.63;0.63;;;-0.40;99.90;;;;;;5083358;28;20129;-89
2022/11/20 02:20:20;;;;;;;1.45;0.90;;;-0.60;99.90;;;;;;5075246;27;20031;-90
2022/11/20 02:23:02;;;;;;;2.20;0.90;;;-0.60;99.90;;;;;;5104080;27;20046;-89
2022/11/20 02:25:29;;;;;;;1.02;0.73;;;-0.50;99.90;;;;;;5095536;27;20465;-89
2022/11/20 02:27:56;;;;;;;3.03;0.80;;;-0.50;99.90;;;;;;5088486;27;20039;-89
2022/11/20 02:30:21;;;;;;;1.60;0.68;;;-0.50;99.90;;;;;;5094670;27;20089;-89
2022/11/20 02:32:47;;;;;;;2.30;0.93;;;-0.50;99.90;;;;;;5081276;27;20477;-90
2022/11/20 02:35:22;;;;;;;2.23;0.93;;;-0.50;99.90;;;;;;5100553;27;20032;-90
2022/11/20 02:37:50;;;;;;;0.60;0.60;;;-0.50;99.90;;;;;;5101714;27;20040;-89
2022/11/20 02:40:16;;;;;;;1.38;0.68;;;-0.50;99.90;;;;;;5113323;27;20069;-90
2022/11/20 02:42:42;;;;;;;3.27;0.90;;;-0.50;99.90;;;;;;5109201;27;20039;-90
2022/11/20 02:45:08;;;;;;;0.50;0.50;;;-0.50;99.90;;;;;;5088487;28;20135;-90
2022/11/20 02:47:34;;;;;;;2.88;1.35;;;-0.60;99.90;;;;;;5096632;27;20058;-90
2022/11/20 02:50:00;;;;;;;0.90;0.55;;;-1.60;99.90;;;;;;5107082;27;20043;-89
2022/11/20 02:52:26;;;;;;;3.10;1.87;;;0.80;99.90;;;;;;5102121;27;20067;-91
2022/11/20 02:54:51;;;;;;;1.10;0.53;;;-0.50;99.90;;;;;;5107282;27;20511;-89
2022/11/20 02:57:17;;;;;;;1.47;1.33;;;-0.50;99.90;;;;;;5068031;28;20501;-90
2022/11/20 02:59:43;;;;;;;1.93;1.47;;;0.80;99.90;;;;;;5099363;27;20039;-89
2022/11/20 03:02:09;;;;;;;1.43;0.53;;;0.10;99.90;;;;;;5079945;27;20051;-89
2022/11/20 03:04:34;;;;;;;3.97;1.15;;;0.50;99.90;;;;;;5124649;27;20389;-90
2022/11/20 03:07:00;;;;;;;0.55;0.35;;;0.10;99.90;;;;;;5084252;27;20032;-89
2022/11/20 03:09:26;;;;;;;1.10;0.50;;;0.80;99.90;;;;;;5084835;28;20089;-89
2022/11/20 03:11:52;;;;;;;1.90;1.00;;;-0.50;99.90;;;;;;5094628;27;20043;-89
2022/11/20 03:14:17;;;;;;;5.67;1.20;;;-0.10;99.90;;;;;;5094105;28;20066;-90
2022/11/20 03:16:43;;;;;;;0.97;0.87;;;-0.50;99.90;;;;;;5108567;27;20057;-89
2022/11/20 03:19:09;;;;;;;0.77;0.67;;;-0.50;99.90;;;;;;5078213;27;20054;-90
2022/11/20 03:21:35;;;;;;;0.88;0.52;;;0.50;99.90;;;;;;5103984;27;20057;-89
2022/11/20 03:24:01;;;;;;;0.50;0.33;;;-0.50;99.90;;;;;;5115965;27;20047;-89
2022/11/20 03:26:27;;;;;;;0.95;0.95;;;-0.50;99.90;;;;;;5108804;27;20304;-90
2022/11/20 03:29:01;;;;;;;0.40;0.40;;;-0.50;99.90;;;;;;5095926;27;20042;-89
2022/11/20 03:31:30;;;;;;;1.02;0.60;;;-0.50;99.90;;;;;;5096368;28;20039;-89
2022/11/20 03:33:57;;;;;;;0.57;0.57;;;0.80;99.90;;;;;;5112951;27;20095;-89
2022/11/20 03:36:23;;;;;;;1.10;0.95;;;-0.30;99.90;;;;;;5110259;27;20070;-89
2022/11/20 03:38:49;;;;;;;2.43;1.13;;;0.40;99.90;;;;;;5114239;27;20436;-89
2022/11/20 03:41:20;;;;;;;2.60;1.13;;;0.80;99.90;;;;;;5087956;28;20119;-89
2022/11/20 03:43:54;;;;;;;0.68;0.63;;;0.70;99.90;;;;;;5089936;28;20047;-89
2022/11/20 03:46:21;;;;;;;0.55;0.47;;;-0.50;99.90;;;;;;5086428;27;20051;-89
2022/11/20 03:48:47;;;;;;;3.03;1.08;;;-0.50;99.90;;;;;;5092170;28;20053;-89
2022/11/20 03:51:30;;;;;;;0.95;0.77;;;0.90;99.90;;;;;;5095813;27;20027;-89
2022/11/20 03:53:58;;;;;;;1.45;0.30;;;-0.40;99.90;;;;;;5082039;27;20051;-89
2022/11/20 03:56:29;;;;;;;0.13;0.10;;;-0.10;99.90;;;;;;5098323;28;20050;-89
2022/11/20 03:58:55;;;;;;;0.82;0.82;;;-0.40;99.90;;;;;;5124779;27;20039;-91
2022/11/20 04:01:27;;;;;;;0.82;0.55;;;-0.20;99.90;;;;;;5105240;28;20050;-89
2022/11/20 04:03:54;;;;;;;1.85;1.00;;;-0.40;99.90;;;;;;5079412;27;20200;-88
2022/11/20 04:06:29;;;;;;;2.78;1.20;;;-0.20;99.90;;;;;;5091589;28;20081;-89
2022/11/20 04:08:58;;;;;;;0.85;0.70;;;-1.20;99.90;;;;;;5104154;27;20118;-89
2022/11/20 04:11:30;;;;;;;3.20;1.35;;;-0.50;99.90;;;;;;5078720;27;20035;-89
2022/11/20 04:13:58;;;;;;;2.05;1.13;;;-0.50;99.90;;;;;;5093572;28;20040;-89
2022/11/20 04:16:25;;;;;;;0.75;0.47;;;0.60;99.90;;;;;;5097469;27;20050;-90
2022/11/20 04:18:56;;;;;;;2.72;1.10;;;-0.50;99.90;;;;;;5099665;27;20487;-89
2022/11/20 04:21:22;;;;;;;1.17;1.17;;;-0.50;99.90;;;;;;5104222;27;20085;-89
2022/11/20 04:23:49;;;;;;;0.43;0.43;;;-0.40;99.90;;;;;;5122767;27;20059;-91
2022/11/20 04:26:14;;;;;;;3.05;0.90;;;-0.40;99.90;;;;;;5089844;27;20043;-89
2022/11/20 04:28:40;;;;;;;2.20;1.47;;;-0.40;99.90;;;;;;5065971;28;20035;-89
2022/11/20 04:31:10;;;;;;;1.33;1.03;;;-0.40;99.90;;;;;;5087878;27;20051;-89
2022/11/20 04:33:36;;;;;;;0.90;0.68;;;-0.40;99.90;;;;;;5106344;27;20127;-90
2022/11/20 04:36:05;;;;;;;1.75;1.00;;;0.30;99.90;;;;;;5087741;27;20411;-90
2022/11/20 04:38:31;;;;;;;0.93;0.93;;;-0.40;99.90;;;;;;5102021;28;20043;-89
2022/11/20 04:40:59;;;;;;;3.70;1.83;;;-0.40;99.90;;;;;;5073188;27;20196;-89
2022/11/20 04:43:25;;;;;;;0.90;0.90;;;-0.40;99.90;;;;;;5099511;27;20293;-89
2022/11/20 04:45:52;;;;;;;1.80;1.03;;;-0.40;99.90;;;;;;5088400;28;20504;-89
2022/11/20 04:48:18;;;;;;;0.40;0.40;;;0.90;99.90;;;;;;5099656;27;20107;-89
2022/11/20 04:50:44;;;;;;;3.53;0.50;;;-0.50;99.90;;;;;;5083752;27;20070;-90
2022/11/20 04:53:09;;;;;;;5.33;0.63;;;-0.40;99.90;;;;;;5081312;28;20050;-89
2022/11/20 04:55:37;;;;;;;0.53;0.53;;;-0.20;99.90;;;;;;5075823;27;20048;-90
2022/11/20 04:58:03;;;;;;;0.60;0.52;;;-0.50;99.90;;;;;;5077341;27;20070;-89
2022/11/20 05:00:29;;;;;;;2.63;0.90;;;-0.60;99.90;;;;;;5097440;27;20051;-91
2022/11/20 05:02:55;;;;;;;0.77;0.47;;;-0.40;99.90;;;;;;5099286;28;20050;-90
2022/11/20 05:05:21;;;;;;;0.70;0.70;;;-0.50;99.90;;;;;;5093431;28;20046;-89
2022/11/20 05:07:46;;;;;;;1.43;0.83;;;0.80;99.90;;;;;;5075304;28;20373;-89
2022/11/20 05:10:12;;;;;;;1.30;0.43;;;-1.60;99.90;;;;;;5076347;27;20089;-89
2022/11/20 05:12:38;;;;;;;1.85;1.13;;;-0.50;99.90;;;;;;5115741;27;20036;-94
2022/11/20 05:15:04;;;;;;;1.88;0.57;;;0.80;99.90;;;;;;5097869;28;20040;-90
2022/11/20 05:17:30;;;;;;;1.63;0.88;;;-1.30;99.90;;;;;;5104877;27;20050;-89
2022/11/20 05:19:56;;;;;;;0.63;0.63;;;1.00;99.90;;;;;;5073443;28;20461;-90
2022/11/20 05:22:21;;;;;;;1.60;0.63;;;0.30;99.90;;;;;;5102181;27;20402;-90
2022/11/20 05:24:47;;;;;;;0.53;0.53;;;0.90;99.90;;;;;;5091654;28;20038;-90
2022/11/20 05:27:13;;;;;;;2.70;0.87;;;0.70;99.90;;;;;;5100057;27;20039;-90
2022/11/20 05:29:39;;;;;;;0.65;0.65;;;-0.40;99.90;;;;;;5088930;28;20050;-89
2022/11/20 05:32:07;;;;;;;0.77;0.77;;;1.10;99.90;;;;;;5090039;27;20441;-89
2022/11/20 05:34:35;;;;;;;0.63;0.45;;;-0.40;99.90;;;;;;5092571;28;20039;-89
2022/11/20 05:37:02;;;;;;;1.45;0.75;;;0.60;99.90;;;;;;5105679;28;20039;-89
2022/11/20 05:39:28;;;;;;;2.85;1.10;;;0.70;99.90;;;;;;5094041;28;20050;-89
2022/11/20 05:44:38;;;;;;;1.17;0.68;;;0.50;99.90;;;;;;5095774;28;20055;-89
2022/11/20 05:47:03;;;;;;;1.17;1.00;;;-0.40;99.90;;;;;;5091670;28;20043;-90
2022/11/20 05:49:29;;;;;;;1.20;0.63;;;-0.30;99.90;;;;;;5085191;28;20058;-90
2022/11/20 05:51:55;;;;;;;0.47;0.47;;;-0.40;99.90;;;;;;5096808;28;20047;-89
2022/11/20 05:54:20;;;;;;;1.20;0.93;;;0.10;99.90;;;;;;5072336;28;20032;-89
2022/11/20 05:56:46;;;;;;;2.17;1.47;;;-0.40;99.90;;;;;;5076600;28;20442;-89
2022/11/20 05:59:12;;;;;;;1.10;0.80;;;0.10;99.90;;;;;;5085443;28;20047;-89
2022/11/20 06:01:37;;;;;;;1.40;0.40;;;-0.50;99.90;;;;;;5073955;27;20071;-89
2022/11/20 06:04:03;;;;;;;0.53;0.53;;;-0.40;99.90;;;;;;5074727;28;20084;-89
2022/11/20 06:06:29;;;;;;;0.50;0.50;;;-0.50;99.90;;;;;;5085118;27;20048;-89
2022/11/20 06:08:55;;;;;;;1.17;0.50;;;-0.50;99.90;;;;;;5076170;27;20156;-89
2022/11/20 06:11:21;;;;;;;2.88;1.20;;;-0.40;99.90;;;;;;5088281;27;20049;-89
2022/11/20 06:13:48;;;;;;;1.88;1.17;;;-0.40;99.90;;;;;;5095096;27;20058;-93
2022/11/20 06:16:15;;;;;;;2.13;1.13;;;0.00;99.90;;;;;;5103500;27;20515;-89
2022/11/20 06:18:44;;;;;;;0.30;0.20;;;-0.40;99.90;;;;;;5093226;27;20507;-90
2022/11/20 06:21:19;;;;;;;1.48;0.80;;;0.60;99.90;;;;;;5084869;28;20150;-90
2022/11/20 06:23:45;;;;;;;0.93;0.70;;;-0.40;99.90;;;;;;5093405;27;20046;-91
2022/11/20 06:26:19;;;;;;;1.20;0.87;;;-0.40;99.90;;;;;;5078979;27;20039;-89
2022/11/20 06:28:45;;;;;;;1.42;0.63;;;-0.40;99.90;;;;;;5083449;27;20131;-90
2022/11/20 06:31:14;;;;;;;1.00;0.82;;;-0.40;99.90;;;;;;5084102;28;20075;-89
2022/11/20 06:33:40;;;;;;;2.47;0.68;;;0.80;99.90;;;;;;5102935;27;20123;-92
2022/11/20 06:36:06;;;;;;;1.20;0.55;;;0.50;99.90;;;;;;5107804;27;20079;-89
2022/11/20 06:38:32;;;;;;;1.00;0.80;;;-0.50;99.90;;;;;;5089507;27;20084;-89
2022/11/20 06:40:58;;;;;;;0.60;0.60;;;0.40;99.90;;;;;;5080414;28;20047;-90
2022/11/20 06:43:24;;;;;;;0.63;0.43;;;-0.50;99.90;;;;;;5089711;27;20135;-89
2022/11/20 06:45:53;;;;;;;0.85;0.60;;;-0.40;99.90;;;;;;5081613;28;20104;-89
2022/11/20 06:48:19;;;;;;;2.25;0.70;;;-0.50;99.90;;;;;;5088733;27;20058;-89
2022/11/20 06:50:45;;;;;;;3.67;0.97;;;-0.50;99.90;;;;;;5075396;28;20036;-89
2022/11/20 06:53:10;;;;;;;0.38;0.38;;;-0.50;99.90;;;;;;5085286;27;20083;-89
2022/11/20 06:55:36;;;;;;;0.83;0.60;;;-0.40;99.90;;;;;;5079183;27;20043;-88
2022/11/20 06:58:01;;;;;;;1.60;1.00;;;-0.50;99.90;;;;;;5095831;27;20366;-89
2022/11/20 07:00:27;;;;;;;1.93;0.77;;;-0.50;99.90;;;;;;5114278;27;20473;-89
2022/11/20 07:02:53;;;;;;;0.73;0.73;;;-0.40;99.90;;;;;;5080238;27;20073;-89
2022/11/20 07:05:19;;;;;;;1.13;1.13;;;-0.50;99.90;;;;;;5067511;27;20050;-89
2022/11/20 07:07:45;;;;;;;1.23;0.63;;;-0.30;99.90;;;;;;5068484;27;20043;-89
2022/11/20 07:10:10;;;;;;;0.25;0.25;;;0.10;99.90;;;;;;5107971;27;20043;-89
2022/11/20 07:12:36;;;;;;;2.17;0.60;;;-0.40;99.90;;;;;;5105996;27;20043;-89
2022/11/20 07:15:02;;;;;;;0.60;0.40;;;0.90;99.90;;;;;;5086859;28;20097;-89
2022/11/20 07:17:28;;;;;;;1.20;0.30;;;-0.40;99.90;;;;;;5069912;27;20058;-94
2022/11/20 07:19:53;;;;;;;1.20;0.90;;;-0.40;99.90;;;;;;5070193;27;20520;-89
2022/11/20 07:22:21;;;;;;;0.67;0.67;;;0.50;99.90;;;;;;5091295;28;20489;-88
2022/11/20 07:24:48;;;;;;;1.13;0.93;;;-0.40;99.90;;;;;;5090450;27;20092;-88
2022/11/20 07:27:13;;;;;;;1.70;0.55;;;-0.40;99.90;;;;;;5091560;27;20051;-89
2022/11/20 07:29:39;;;;;;;1.25;0.82;;;-0.40;99.90;;;;;;5088355;27;20043;-91
2022/11/20 07:32:05;;;;;;;0.70;0.70;;;-0.40;99.90;;;;;;5092225;27;20039;-90
2022/11/20 07:34:30;;;;;;;2.53;0.83;;;0.80;99.90;;;;;;5079027;28;20043;-90
2022/11/20 07:36:56;;;;;;;3.40;0.73;;;-0.40;99.90;;;;;;5071014;28;20047;-90
2022/11/20 07:39:22;;;;;;;0.60;0.60;;;0.80;99.90;;;;;;5066043;27;20138;-90
2022/11/20 07:41:47;;;;;;;0.40;0.40;;;0.80;99.90;;;;;;5087216;27;21332;-90
2022/11/20 07:44:13;;;;;;;0.60;0.60;;;-0.40;99.90;;;;;;5079572;28;20050;-90
2022/11/20 07:46:38;;;;;;;1.17;0.77;;;-0.30;99.90;;;;;;5083149;27;20043;-95
2022/11/20 07:49:07;;;;;;;0.40;0.40;;;0.20;99.90;;;;;;5060867;27;20039;-96
2022/11/20 07:51:33;;;;;;;0.70;0.70;;;-0.30;99.90;;;;;;5097417;27;20046;-96
2022/11/20 07:54:04;;;;;;;0.93;0.63;;;0.20;99.90;;;;;;5087812;27;20040;-96
2022/11/20 07:56:32;;;;;;;0.75;0.75;;;0.20;99.90;;;;;;5076779;28;20059;-96
2022/11/20 07:58:58;;;;;;;2.60;0.93;;;0.60;99.90;;;;;;5101126;27;20104;-96
2022/11/20 08:01:31;;;;;;;1.57;0.83;;;-0.30;99.90;;;;;;5094057;27;20092;-96
2022/11/20 08:03:57;;;;;;;4.88;0.75;;;2.00;99.90;;;;;;5083744;28;20104;-96
2022/11/20 08:06:26;;;;;;;0.63;0.57;;;-0.20;99.90;;;;;;5105393;27;20486;-96
2022/11/20 08:08:58;;;;;;;0.45;0.45;;;-0.30;99.90;;;;;;5095524;27;20036;-92
2022/11/20 08:14:14;;;;;;;0.50;0.50;;;0.20;99.90;;;;;;5100970;27;20082;-91
2022/11/20 08:16:47;;;;;;;0.95;0.68;;;1.20;99.90;;;;;;5076860;27;20031;-91
2022/11/20 08:19:15;;;;;;;1.23;0.65;;;0.70;99.90;;;;;;5090440;27;20049;-90
2022/11/20 08:21:41;;;;;;;0.35;0.17;;;-0.60;99.90;;;;;;5116455;27;20090;-89
2022/11/20 08:24:08;;;;;;;0.70;0.50;;;0.80;99.90;;;;;;5104416;28;20051;-91
2022/11/20 08:26:35;;;;;;;2.03;0.77;;;1.20;99.90;;;;;;5081085;28;20078;-90
2022/11/20 08:29:00;;;;;;;;;;;-1.00;99.90;;;;;;5097422;28;20043;-94
2022/11/20 08:31:27;;;;;;;1.33;0.80;;;1.10;99.90;;;;;;5101482;27;20034;-92
2022/11/20 08:33:55;;;;;;;2.03;0.85;;;0.00;99.90;;;;;;5100846;27;20055;-92
2022/11/20 08:36:23;;;;;;;0.68;0.68;;;0.60;99.90;;;;;;5115518;27;20043;-92
2022/11/20 08:38:56;;;;;;;1.60;1.10;;;1.30;99.90;;;;;;5099919;27;20051;-90
2022/11/20 08:41:27;;;;;;;0.55;0.50;;;-0.20;99.90;;;;;;5093272;28;20071;-89
2022/11/20 08:44:06;;;;;;;1.17;1.05;;;0.00;99.90;;;;;;5087533;27;20046;-89
2022/11/20 08:46:38;;;;;;;0.60;0.60;;;0.00;99.90;;;;;;5113403;27;20051;-91
2022/11/20 08:49:05;;;;;;;3.25;0.82;;;0.10;99.90;;;;;;5115518;27;20047;-92
2022/11/20 08:51:31;;;;;;;1.40;0.85;;;1.10;99.90;;;;;;5093479;28;20051;-93
2022/11/20 08:53:57;;;;;;;1.07;0.70;;;0.10;99.90;;;;;;5114747;28;20130;-90
2022/11/20 08:56:24;;;;;;;1.00;0.97;;;0.10;99.90;;;;;;5080464;27;20048;-92
2022/11/20 08:58:53;;;;;;;0.40;0.40;;;0.20;99.90;;;;;;5087083;28;20689;-89
2022/11/20 09:01:20;;;;;;;0.85;0.63;;;0.80;99.90;;;;;;5083763;27;20384;-89
2022/11/20 09:03:46;;;;;;;0.30;0.30;;;0.30;99.90;;;;;;5115653;27;20082;-88
2022/11/20 09:06:12;;;;;;;4.30;0.50;;;0.20;99.90;;;;;;5090357;28;20051;-88
2022/11/20 09:08:38;;;;;;;1.55;0.77;;;0.20;99.90;;;;;;5076654;28;20855;-87
2022/11/20 09:11:04;;;;;;;0.97;0.50;;;1.40;99.90;;;;;;5111358;27;20043;-87
2022/11/20 09:13:34;;;;;;;0.45;0.40;;;0.20;99.90;;;;;;5114963;27;20053;-88
2022/11/20 09:16:05;;;;;;;1.30;1.20;;;0.20;99.90;;;;;;5098337;27;20046;-87
2022/11/20 09:18:32;;;;;;;2.42;0.73;;;0.40;99.90;;;;;;5104672;28;20547;-86
2022/11/20 09:20:59;;;;;;;1.15;1.08;;;0.40;99.90;;;;;;5104397;27;20047;-87
2022/11/20 09:23:27;;;;;;;1.38;0.80;;;0.40;99.90;;;;;;5095807;28;20122;-87
2022/11/20 09:25:55;;;;;;;1.17;1.08;;;0.40;99.90;;;;;;5115079;27;20481;-86
2022/11/20 09:28:21;;;;;;;1.15;1.15;;;0.70;99.90;;;;;;5097480;27;20039;-90
2022/11/20 09:30:47;;;;;;;0.40;0.40;;;0.50;99.90;;;;;;5106416;27;20082;-90
2022/11/20 09:33:12;;;;;;;2.47;0.70;;;0.50;99.90;;;;;;5091553;28;20044;-89
2022/11/20 09:35:38;;;;;;;0.40;0.40;;;1.80;99.90;;;;;;5072366;28;20107;-90
2022/11/20 09:38:06;;;;;;;0.50;0.37;;;0.70;99.90;;;;;;5077903;28;20056;-89
2022/11/20 09:40:34;;;;;;;0.50;0.43;;;0.20;99.90;;;;;;5093910;28;20040;-89
2022/11/20 09:43:08;;;;;;;1.70;0.43;;;-0.30;99.90;;;;;;5078425;28;20052;-92
2022/11/20 09:45:53;;;;;;;0.85;0.40;;;0.80;99.90;;;;;;5093539;28;20035;-90
2022/11/20 09:48:24;;;;;;;2.03;0.98;;;0.80;99.90;;;;;;5097867;28;20081;-91
2022/11/20 09:51:03;;;;;;;0.80;0.30;;;0.80;99.90;;;;;;5099389;28;20035;-90
2022/11/20 09:53:50;;;;;;;0.20;0.20;;;0.80;99.90;;;;;;5115252;28;20055;-90
2022/11/20 09:56:18;;;;;;;0.90;0.40;;;0.90;99.90;;;;;;5098308;28;20489;-90
2022/11/20 09:58:51;;;;;;;2.33;0.73;;;0.90;99.90;;;;;;5113999;28;20039;-89
2022/11/20 10:01:25;;;;;;;0.90;0.80;;;0.90;99.90;;;;;;5090227;28;20089;-90
2022/11/20 10:03:58;;;;;;;4.65;0.75;;;1.00;99.90;;;;;;5107879;27;20039;-88
2022/11/20 10:06:44;;;;;;;1.98;0.50;;;2.40;99.90;;;;;;5090792;28;20493;-88
2022/11/20 10:09:13;;;;;;;0.95;0.40;;;1.00;99.90;;;;;;5087431;28;20059;-89
2022/11/20 10:11:41;;;;;;;0.70;0.70;;;1.00;99.90;;;;;;5111679;28;20557;-88
2022/11/20 10:14:20;;;;;;;2.10;0.70;;;1.10;99.90;;;;;;5108713;28;20039;-88
2022/11/20 10:17:05;;;;;;;0.50;0.50;;;1.10;99.90;;;;;;5085517;28;20481;-89
2022/11/20 10:19:52;;;;;;;1.75;0.40;;;1.20;99.90;;;;;;5098473;28;20044;-89
2022/11/20 10:22:37;;;;;;;0.38;0.38;;;1.20;99.90;;;;;;5076771;28;20534;-90
2022/11/20 10:25:15;;;;;;;1.55;0.65;;;1.30;99.90;;;;;;5086465;27;20116;-91
2022/11/20 10:28:09;;;;;;;;;;;1.40;99.90;;;;;;5094993;28;20161;-90
2022/11/20 10:30:39;;;;;;;1.48;0.73;;;1.40;99.90;;;;;;5105443;28;19957;-91
2022/11/20 10:33:13;;;;;;;0.63;0.63;;;1.50;99.90;;;;;;5094676;28;20070;-89
2022/11/20 10:35:45;;;;;;;1.08;0.57;;;2.20;99.90;;;;;;5086507;28;20055;-90
2022/11/20 10:38:24;;;;;;;0.90;0.30;;;1.60;99.90;;;;;;5098015;28;20047;-91
2022/11/20 10:41:24;;;;;;;1.73;0.45;;;1.70;99.90;;;;;;5116612;27;20039;-92
2022/11/20 10:43:47;;;;;;;2.45;0.65;;;1.70;99.90;;;;;;5118664;27;20285;-93
2022/11/20 10:46:24;;;;;;;0.55;0.40;;;1.70;99.90;;;;;;5121278;27;20057;-92
2022/11/20 10:48:51;;;;;;;0.63;0.53;;;1.80;99.90;;;;;;5103370;27;20117;-92
2022/11/20 10:51:55;;;;;;;0.82;0.80;;;1.80;99.90;;;;;;5089972;27;20043;-95
2022/11/20 10:54:50;;;;;;;0.98;0.93;;;2.20;99.90;;;;;;5017716;28;20543;-95
2022/11/20 10:57:49;;;;;;;1.15;0.50;;;1.90;99.90;;;;;;5021954;28;20049;-94
2022/11/20 11:00:17;;;;;;;0.75;0.50;;;1.80;99.90;;;;;;5092278;28;20063;-93
2022/11/20 11:02:53;;;;;;;0.45;0.38;;;2.90;99.90;;;;;;5081709;28;20529;-95
2022/11/20 11:05:45;;;;;;;0.43;0.40;;;1.80;99.90;;;;;;5091754;28;20043;-96
2022/11/20 11:08:17;;;;;;;1.58;0.80;;;1.80;99.90;;;;;;5067390;28;20056;-91
2022/11/20 11:11:01;;;;;;;0.63;0.60;;;1.80;99.90;;;;;;5114144;27;20050;-91
2022/11/20 11:13:30;;;;;;;1.45;0.90;;;1.80;99.90;;;;;;5126023;28;20043;-92
2022/11/20 11:15:57;;;;;;;1.17;0.47;;;3.20;99.90;;;;;;5100551;27;20093;-92
2022/11/20 11:18:29;;;;;;;0.63;0.30;;;2.60;99.90;;;;;;5115979;27;20477;-92
2022/11/20 11:20:57;;;;;;;0.40;0.25;;;1.80;99.90;;;;;;5104898;27;20126;-92
2022/11/20 11:23:43;;;;;;;0.93;0.93;;;2.80;99.90;;;;;;5096082;28;20112;-92
2022/11/20 11:26:23;;;;;;;2.08;0.70;;;1.80;99.90;;;;;;5084807;27;20489;-91
2022/11/20 11:28:58;;;;;;;1.42;0.65;;;2.90;99.90;;;;;;5088627;28;20048;-91
2022/11/20 11:31:29;;;;;;;1.55;0.50;;;1.80;99.90;;;;;;5102555;27;20047;-88
2022/11/20 11:34:13;;;;;;;0.40;0.40;;;1.80;99.90;;;;;;5102541;28;20054;-88
2022/11/20 11:36:39;;;;;;;0.55;0.50;;;1.80;99.90;;;;;;5136388;27;20050;-89
2022/11/20 11:39:14;;;;;;;0.40;0.40;;;1.80;99.90;;;;;;5103846;27;20047;-88
2022/11/20 11:41:40;;;;;;;2.40;0.50;;;2.60;99.90;;;;;;5125557;27;20071;-89
2022/11/20 11:47:25;;;;;;;1.23;0.65;;;1.90;99.90;;;;;;5117288;27;20051;-89
2022/11/20 11:50:09;;;;;;;0.82;0.50;;;2.10;99.90;;;;;;5099559;27;20050;-89
2022/11/20 11:53:08;;;;;;;1.58;0.52;;;2.60;99.90;;;;;;5105190;27;20046;-89
2022/11/20 11:55:47;;;;;;;1.25;0.50;;;1.90;99.90;;;;;;5099722;27;20051;-88
2022/11/20 11:58:21;;;;;;;1.33;0.63;;;1.90;99.90;;;;;;5116854;27;20050;-88
2022/11/20 12:01:04;;;;;;;0.90;0.52;;;1.90;99.90;;;;;;5105115;28;20051;-88
2022/11/20 12:03:43;;;;;;;1.75;0.15;;;2.00;99.90;;;;;;5107393;28;20050;-88
2022/11/20 12:06:13;;;;;;;1.30;0.40;;;2.70;99.90;;;;;;5096467;28;20090;-89
2022/11/20 12:08:53;;;;;;;3.53;0.47;;;2.20;99.90;;;;;;5113192;28;20058;-89
2022/11/20 12:11:43;;;;;;;0.55;0.55;;;2.60;99.90;;;;;;5108981;27;20046;-89
2022/11/20 12:14:26;;;;;;;1.13;0.52;;;2.30;99.90;;;;;;5137223;27;20046;-89
2022/11/20 12:16:53;;;;;;;1.52;0.95;;;2.40;99.90;;;;;;5129492;27;20055;-89
2022/11/20 12:19:18;;;;;;;;;;;2.50;99.90;;;;;;5115152;27;20051;-85
2022/11/20 12:21:58;;;;;;;0.77;0.60;;;3.60;99.90;;;;;;5115661;27;19926;-93
2022/11/20 12:24:44;;;;;;;0.88;0.30;;;2.60;99.90;;;;;;5099456;27;20062;-89
2022/11/20 12:27:47;;;;;;;0.10;0.10;;;2.50;99.90;;;;;;5114124;27;20100;-87
2022/11/20 12:30:14;;;;;;;1.35;0.82;;;2.80;99.90;;;;;;5079562;28;20047;-86
2022/11/20 12:33:12;;;;;;;1.95;0.85;;;2.80;99.90;;;;;;5095498;28;20119;-86
2022/11/20 12:36:07;;;;;;;0.57;0.57;;;2.90;99.90;;;;;;5095977;28;20051;-86
2022/11/20 12:38:54;;;;;;;2.35;0.43;;;2.90;99.90;;;;;;5103827;27;20135;-86
2022/11/20 12:47:31;;;;;;;1.40;0.38;;;2.90;99.90;;;;;;5116179;27;20043;-86
2022/11/20 12:50:07;;;;;;;1.00;0.38;;;2.80;99.90;;;;;;5115724;27;20443;-86
2022/11/20 12:52:45;;;;;;;1.40;0.63;;;2.90;99.90;;;;;;5116002;27;20421;-86
2022/11/20 12:55:31;;;;;;;0.90;0.40;;;3.70;99.90;;;;;;5115928;27;20104;-86
2022/11/20 12:58:12;;;;;;;0.95;0.70;;;3.10;99.90;;;;;;5115624;27;20405;-86
2022/11/20 13:00:49;;;;;;;2.20;0.80;;;3.30;99.90;;;;;;5115258;27;20078;-86
2022/11/20 13:03:34;;;;;;;1.17;0.47;;;3.70;99.90;;;;;;5115172;27;20039;-87
2022/11/20 13:06:11;;;;;;;0.40;0.40;;;4.10;99.90;;;;;;5098265;27;20515;-86
2022/11/20 13:08:40;;;;;;;1.35;0.30;;;4.30;99.90;;;;;;5115552;27;20500;-86
2022/11/20 13:11:24;;;;;;;1.08;0.55;;;4.50;99.90;;;;;;5133418;27;20678;-86
2022/11/20 13:13:58;;;;;;;2.10;0.85;;;4.30;99.90;;;;;;5098427;27;20522;-86
2022/11/20 13:16:33;;;;;;;0.68;0.65;;;4.20;99.90;;;;;;5115955;27;20043;-86
2022/11/20 13:19:03;;;;;;;1.65;0.55;;;5.30;99.90;;;;;;5115030;27;20071;-86
2022/11/20 13:21:41;;;;;;;0.30;0.30;;;5.10;99.90;;;;;;5133678;27;20050;-87
2022/11/20 13:24:32;;;;;;;2.13;0.47;;;3.90;99.90;;;;;;5114755;27;20059;-87
2022/11/20 13:27:13;;;;;;;0.65;0.65;;;3.80;99.90;;;;;;5089730;27;20047;-86
2022/11/20 13:29:43;;;;;;;1.58;0.38;;;3.80;99.90;;;;;;5115508;27;20065;-86